sensor_id;sensor_type;location;lat;lon;timestamp;pressure;altitude;pressure_sealevel;temperature;humidity
63019;BME280;49105;46.046;10.760;2024-02-26T00:01:40;94818.78;;;3.64;80.42
63019;BME280;49105;46.046;10.760;2024-02-26T00:04:05;94818.78;;;3.64;80.05
63019;BME280;49105;46.046;10.760;2024-02-26T00:06:31;94817.50;;;3.66;80.45
63019;BME280;49105;46.046;10.760;2024-02-26T00:08:57;94822.81;;;3.77;80.27
63019;BME280;49105;46.046;10.760;2024-02-26T00:11:23;94821.00;;;3.82;80.06
63019;BME280;49105;46.046;10.760;2024-02-26T00:13:49;94815.28;;;3.85;80.15
63019;BME280;49105;46.046;10.760;2024-02-26T00:16:15;94813.50;;;3.91;79.72
63019;BME280;49105;46.046;10.760;2024-02-26T00:18:42;94814.31;;;3.91;79.54
63019;BME280;49105;46.046;10.760;2024-02-26T00:21:08;94805.88;;;3.84;80.03
63019;BME280;49105;46.046;10.760;2024-02-26T00:23:34;94813.41;;;3.81;79.87
63019;BME280;49105;46.046;10.760;2024-02-26T00:26:01;94809.22;;;3.80;80.17
63019;BME280;49105;46.046;10.760;2024-02-26T00:28:26;94812.38;;;3.82;79.93
63019;BME280;49105;46.046;10.760;2024-02-26T00:30:54;94805.06;;;3.84;80.20
63019;BME280;49105;46.046;10.760;2024-02-26T00:33:21;94801.91;;;3.82;79.77
63019;BME280;49105;46.046;10.760;2024-02-26T00:35:48;94801.38;;;3.80;80.33
63019;BME280;49105;46.046;10.760;2024-02-26T00:38:14;94799.25;;;3.77;80.08
63019;BME280;49105;46.046;10.760;2024-02-26T00:40:40;94804.75;;;3.75;80.16
63019;BME280;49105;46.046;10.760;2024-02-26T00:43:09;94797.91;;;3.74;80.38
63019;BME280;49105;46.046;10.760;2024-02-26T00:45:35;94792.44;;;3.76;80.66
63019;BME280;49105;46.046;10.760;2024-02-26T00:48:01;94792.47;;;3.81;80.40
63019;BME280;49105;46.046;10.760;2024-02-26T00:50:31;94801.38;;;3.80;80.18
63019;BME280;49105;46.046;10.760;2024-02-26T00:52:57;94782.50;;;3.78;80.35
63019;BME280;49105;46.046;10.760;2024-02-26T00:55:23;94776.75;;;3.76;80.29
63019;BME280;49105;46.046;10.760;2024-02-26T00:57:48;94770.16;;;3.73;80.45
63019;BME280;49105;46.046;10.760;2024-02-26T01:00:15;94770.16;;;3.73;80.61
63019;BME280;49105;46.046;10.760;2024-02-26T01:02:41;94769.88;;;3.69;80.51
63019;BME280;49105;46.046;10.760;2024-02-26T01:05:08;94778.47;;;3.65;80.85
63019;BME280;49105;46.046;10.760;2024-02-26T01:07:37;94776.91;;;3.64;80.79
63019;BME280;49105;46.046;10.760;2024-02-26T01:10:03;94775.38;;;3.68;80.79
63019;BME280;49105;46.046;10.760;2024-02-26T01:12:29;94761.28;;;3.74;80.80
63019;BME280;49105;46.046;10.760;2024-02-26T01:14:55;94762.31;;;3.73;80.89
63019;BME280;49105;46.046;10.760;2024-02-26T01:17:21;94769.13;;;3.74;80.66
63019;BME280;49105;46.046;10.760;2024-02-26T01:19:48;94757.63;;;3.75;80.95
63019;BME280;49105;46.046;10.760;2024-02-26T01:22:14;94754.00;;;3.81;80.76
63019;BME280;49105;46.046;10.760;2024-02-26T01:24:40;94749.56;;;3.82;80.51
63019;BME280;49105;46.046;10.760;2024-02-26T01:27:06;94745.06;;;3.77;80.30
63019;BME280;49105;46.046;10.760;2024-02-26T01:29:34;94741.16;;;3.75;80.50
63019;BME280;49105;46.046;10.760;2024-02-26T01:31:59;94744.78;;;3.73;80.42
63019;BME280;49105;46.046;10.760;2024-02-26T01:34:25;94737.97;;;3.72;80.66
63019;BME280;49105;46.046;10.760;2024-02-26T01:36:51;94732.00;;;3.77;80.48
63019;BME280;49105;46.046;10.760;2024-02-26T01:39:17;94734.38;;;3.79;80.62
63019;BME280;49105;46.046;10.760;2024-02-26T01:41:42;94724.94;;;3.78;80.48
63019;BME280;49105;46.046;10.760;2024-02-26T01:44:12;94716.84;;;3.79;80.44
63019;BME280;49105;46.046;10.760;2024-02-26T01:46:38;94714.97;;;3.75;80.54
63019;BME280;49105;46.046;10.760;2024-02-26T01:49:04;94722.28;;;3.72;80.60
63019;BME280;49105;46.046;10.760;2024-02-26T01:51:32;94710.47;;;3.70;80.66
63019;BME280;49105;46.046;10.760;2024-02-26T01:53:59;94714.69;;;3.71;80.82
63019;BME280;49105;46.046;10.760;2024-02-26T01:56:27;94713.09;;;3.70;80.79
63019;BME280;49105;46.046;10.760;2024-02-26T01:58:56;94713.94;;;3.76;80.81
63019;BME280;49105;46.046;10.760;2024-02-26T02:01:25;94712.91;;;3.82;80.48
63019;BME280;49105;46.046;10.760;2024-02-26T02:03:51;94712.41;;;3.85;80.54
63019;BME280;49105;46.046;10.760;2024-02-26T02:06:17;94711.38;;;3.86;80.32
63019;BME280;49105;46.046;10.760;2024-02-26T02:08:44;94711.59;;;3.79;80.37
63019;BME280;49105;46.046;10.760;2024-02-26T02:11:10;94706.88;;;3.76;80.47
63019;BME280;49105;46.046;10.760;2024-02-26T02:13:37;94701.59;;;3.71;80.64
63019;BME280;49105;46.046;10.760;2024-02-26T02:16:04;94708.88;;;3.64;80.72
63019;BME280;49105;46.046;10.760;2024-02-26T02:18:29;94701.28;;;3.62;81.07
63019;BME280;49105;46.046;10.760;2024-02-26T02:20:56;94695.81;;;3.64;81.26
63019;BME280;49105;46.046;10.760;2024-02-26T02:23:24;94689.03;;;3.68;81.24
63019;BME280;49105;46.046;10.760;2024-02-26T02:25:51;94690.63;;;3.74;80.96
63019;BME280;49105;46.046;10.760;2024-02-26T02:28:17;94686.72;;;3.77;80.41
63019;BME280;49105;46.046;10.760;2024-02-26T02:30:42;94695.63;;;3.81;80.73
63019;BME280;49105;46.046;10.760;2024-02-26T02:33:08;94693.81;;;3.81;80.46
63019;BME280;49105;46.046;10.760;2024-02-26T02:35:34;94692.72;;;3.77;80.64
63019;BME280;49105;46.046;10.760;2024-02-26T02:38:01;94687.75;;;3.76;80.79
63019;BME280;49105;46.046;10.760;2024-02-26T02:40:26;94681.97;;;3.73;80.72
63019;BME280;49105;46.046;10.760;2024-02-26T02:42:53;94676.75;;;3.73;80.64
63019;BME280;49105;46.046;10.760;2024-02-26T02:45:19;94667.13;;;3.79;80.90
63019;BME280;49105;46.046;10.760;2024-02-26T02:47:44;94659.75;;;3.76;80.62
63019;BME280;49105;46.046;10.760;2024-02-26T02:50:10;94659.97;;;3.69;80.76
63019;BME280;49105;46.046;10.760;2024-02-26T02:52:37;94660.75;;;3.70;81.21
63019;BME280;49105;46.046;10.760;2024-02-26T02:55:03;94651.88;;;3.71;80.83
63019;BME280;49105;46.046;10.760;2024-02-26T02:57:30;94649.78;;;3.73;80.85
63019;BME280;49105;46.046;10.760;2024-02-26T02:59:56;94654.50;;;3.71;80.89
63019;BME280;49105;46.046;10.760;2024-02-26T03:02:22;94657.06;;;3.66;81.06
63019;BME280;49105;46.046;10.760;2024-02-26T03:04:50;94655.69;;;3.53;81.12
63019;BME280;49105;46.046;10.760;2024-02-26T03:07:16;94659.06;;;3.48;81.61
63019;BME280;49105;46.046;10.760;2024-02-26T03:09:42;94657.53;;;3.53;81.71
63019;BME280;49105;46.046;10.760;2024-02-26T03:12:08;94652.31;;;3.58;81.51
63019;BME280;49105;46.046;10.760;2024-02-26T03:14:34;94647.13;;;3.63;81.21
63019;BME280;49105;46.046;10.760;2024-02-26T03:17:00;94641.63;;;3.64;81.00
63019;BME280;49105;46.046;10.760;2024-02-26T03:19:27;94641.91;;;3.63;81.17
63019;BME280;49105;46.046;10.760;2024-02-26T03:21:53;94643.72;;;3.62;81.08
63019;BME280;49105;46.046;10.760;2024-02-26T03:24:19;94640.84;;;3.64;81.14
63019;BME280;49105;46.046;10.760;2024-02-26T03:26:45;94642.41;;;3.65;81.26
63019;BME280;49105;46.046;10.760;2024-02-26T03:29:11;94644.00;;;3.66;81.33
63019;BME280;49105;46.046;10.760;2024-02-26T03:31:38;94641.41;;;3.71;81.11
63019;BME280;49105;46.046;10.760;2024-02-26T03:34:03;94635.41;;;3.70;80.94
63019;BME280;49105;46.046;10.760;2024-02-26T03:36:30;94635.91;;;3.67;80.98
63019;BME280;49105;46.046;10.760;2024-02-26T03:38:55;94635.53;;;3.54;81.20
63019;BME280;49105;46.046;10.760;2024-02-26T03:41:21;94641.78;;;3.47;81.38
63019;BME280;49105;46.046;10.760;2024-02-26T03:43:48;94645.69;;;3.45;81.86
63019;BME280;49105;46.046;10.760;2024-02-26T03:46:13;94640.22;;;3.46;81.64
63019;BME280;49105;46.046;10.760;2024-02-26T03:48:42;94634.44;;;3.44;81.75
63019;BME280;49105;46.046;10.760;2024-02-26T03:51:10;94636.78;;;3.41;81.82
63019;BME280;49105;46.046;10.760;2024-02-26T03:53:36;94642.28;;;3.44;82.19
63019;BME280;49105;46.046;10.760;2024-02-26T03:56:06;94637.63;;;3.52;82.19
63019;BME280;49105;46.046;10.760;2024-02-26T03:58:32;94623.78;;;3.56;81.96
63019;BME280;49105;46.046;10.760;2024-02-26T04:00:59;94627.75;;;3.59;82.00
63019;BME280;49105;46.046;10.760;2024-02-26T04:03:25;94623.28;;;3.59;81.96
63019;BME280;49105;46.046;10.760;2024-02-26T04:05:51;94619.63;;;3.60;82.07
63019;BME280;49105;46.046;10.760;2024-02-26T04:08:16;94620.41;;;3.61;81.96
63019;BME280;49105;46.046;10.760;2024-02-26T04:10:42;94619.41;;;3.67;81.86
63019;BME280;49105;46.046;10.760;2024-02-26T04:13:08;94623.09;;;3.71;81.86
63019;BME280;49105;46.046;10.760;2024-02-26T04:15:34;94627.78;;;3.69;81.74
63019;BME280;49105;46.046;10.760;2024-02-26T04:18:00;94617.31;;;3.64;81.81
63019;BME280;49105;46.046;10.760;2024-02-26T04:20:26;94623.59;;;3.63;81.92
63019;BME280;49105;46.046;10.760;2024-02-26T04:22:52;94622.00;;;3.62;82.00
63019;BME280;49105;46.046;10.760;2024-02-26T04:25:18;94622.25;;;3.60;82.16
63019;BME280;49105;46.046;10.760;2024-02-26T04:27:43;94624.88;;;3.60;82.31
63019;BME280;49105;46.046;10.760;2024-02-26T04:30:09;94617.31;;;3.64;82.25
63019;BME280;49105;46.046;10.760;2024-02-26T04:32:35;94621.50;;;3.70;81.73
63019;BME280;49105;46.046;10.760;2024-02-26T04:35:02;94620.72;;;3.69;81.85
63019;BME280;49105;46.046;10.760;2024-02-26T04:37:28;94625.16;;;3.69;81.62
63019;BME280;49105;46.046;10.760;2024-02-26T04:40:00;94623.88;;;3.66;81.73
63019;BME280;49105;46.046;10.760;2024-02-26T04:42:26;94621.25;;;3.66;81.68
63019;BME280;49105;46.046;10.760;2024-02-26T04:44:52;94614.13;;;3.62;81.85
63019;BME280;49105;46.046;10.760;2024-02-26T04:47:18;94604.41;;;3.52;81.80
63019;BME280;49105;46.046;10.760;2024-02-26T04:49:44;94604.69;;;3.51;81.96
63019;BME280;49105;46.046;10.760;2024-02-26T04:52:11;94609.34;;;3.48;82.06
63019;BME280;49105;46.046;10.760;2024-02-26T04:54:38;94619.59;;;3.50;82.46
63019;BME280;49105;46.046;10.760;2024-02-26T04:57:04;94614.63;;;3.54;82.53
63019;BME280;49105;46.046;10.760;2024-02-26T04:59:31;94620.66;;;3.54;82.27
63019;BME280;49105;46.046;10.760;2024-02-26T05:01:57;94610.44;;;3.58;82.25
63019;BME280;49105;46.046;10.760;2024-02-26T05:04:23;94607.88;;;3.63;82.35
63019;BME280;49105;46.046;10.760;2024-02-26T05:06:48;94608.44;;;3.70;82.15
63019;BME280;49105;46.046;10.760;2024-02-26T05:09:14;94615.78;;;3.73;81.65
63019;BME280;49105;46.046;10.760;2024-02-26T05:11:40;94616.53;;;3.68;81.72
63019;BME280;49105;46.046;10.760;2024-02-26T05:14:06;94615.47;;;3.64;81.92
63019;BME280;49105;46.046;10.760;2024-02-26T05:16:31;94612.06;;;3.64;81.77
63019;BME280;49105;46.046;10.760;2024-02-26T05:18:57;94612.06;;;3.64;81.95
63019;BME280;49105;46.046;10.760;2024-02-26T05:21:23;94610.50;;;3.63;81.93
63019;BME280;49105;46.046;10.760;2024-02-26T05:23:49;94614.13;;;3.62;81.88
63019;BME280;49105;46.046;10.760;2024-02-26T05:26:21;94612.03;;;3.59;82.05
63019;BME280;49105;46.046;10.760;2024-02-26T05:28:47;94612.84;;;3.59;82.07
63019;BME280;49105;46.046;10.760;2024-02-26T05:31:14;94607.88;;;3.63;82.30
63019;BME280;49105;46.046;10.760;2024-02-26T05:33:40;94617.56;;;3.62;81.95
63019;BME280;49105;46.046;10.760;2024-02-26T05:36:06;94616.50;;;3.58;82.13
63019;BME280;49105;46.046;10.760;2024-02-26T05:38:32;94618.84;;;3.60;82.22
63019;BME280;49105;46.046;10.760;2024-02-26T05:40:58;94612.84;;;3.59;81.97
63019;BME280;49105;46.046;10.760;2024-02-26T05:43:25;94606.81;;;3.59;82.08
63019;BME280;49105;46.046;10.760;2024-02-26T05:45:50;94611.78;;;3.60;82.02
63019;BME280;49105;46.046;10.760;2024-02-26T05:48:16;94613.59;;;3.55;82.16
63019;BME280;49105;46.046;10.760;2024-02-26T05:50:42;94627.69;;;3.54;82.42
63019;BME280;49105;46.046;10.760;2024-02-26T05:53:07;94621.72;;;3.58;82.13
63019;BME280;49105;46.046;10.760;2024-02-26T05:55:33;94618.06;;;3.59;82.37
63019;BME280;49105;46.046;10.760;2024-02-26T05:57:59;94620.91;;;3.53;82.16
63019;BME280;49105;46.046;10.760;2024-02-26T06:00:24;94608.31;;;3.49;82.29
63019;BME280;49105;46.046;10.760;2024-02-26T06:02:50;94626.91;;;3.53;82.62
63019;BME280;49105;46.046;10.760;2024-02-26T06:05:16;94639.22;;;3.53;82.33
63019;BME280;49105;46.046;10.760;2024-02-26T06:07:43;94627.47;;;3.55;82.77
63019;BME280;49105;46.046;10.760;2024-02-26T06:10:10;94634.53;;;3.60;82.54
63019;BME280;49105;46.046;10.760;2024-02-26T06:12:36;94640.84;;;3.64;82.13
63019;BME280;49105;46.046;10.760;2024-02-26T06:15:02;94637.44;;;3.63;82.19
63019;BME280;49105;46.046;10.760;2024-02-26T06:17:28;94639.75;;;3.55;82.32
63019;BME280;49105;46.046;10.760;2024-02-26T06:19:54;94649.16;;;3.51;82.75
63019;BME280;49105;46.046;10.760;2024-02-26T06:22:20;94655.91;;;3.46;82.77
63019;BME280;49105;46.046;10.760;2024-02-26T06:24:46;94671.63;;;3.46;83.02
63019;BME280;49105;46.046;10.760;2024-02-26T06:27:13;94664.28;;;3.48;83.11
63019;BME280;49105;46.046;10.760;2024-02-26T06:29:39;94665.84;;;3.49;82.77
63019;BME280;49105;46.046;10.760;2024-02-26T06:32:05;94665.84;;;3.49;82.95
63019;BME280;49105;46.046;10.760;2024-02-26T06:34:31;94667.47;;;3.51;82.89
63019;BME280;49105;46.046;10.760;2024-02-26T06:36:57;94664.09;;;3.55;82.87
63019;BME280;49105;46.046;10.760;2024-02-26T06:39:24;94673.00;;;3.59;83.01
63019;BME280;49105;46.046;10.760;2024-02-26T06:41:52;94671.47;;;3.63;83.00
63019;BME280;49105;46.046;10.760;2024-02-26T06:44:25;94679.84;;;3.65;82.91
63019;BME280;49105;46.046;10.760;2024-02-26T06:46:52;94682.22;;;3.67;82.84
63019;BME280;49105;46.046;10.760;2024-02-26T06:49:18;94681.66;;;3.65;82.96
63019;BME280;49105;46.046;10.760;2024-02-26T06:51:44;94678.56;;;3.68;83.02
63019;BME280;49105;46.046;10.760;2024-02-26T06:54:10;94686.94;;;3.70;82.65
63019;BME280;49105;46.046;10.760;2024-02-26T06:56:37;94685.34;;;3.64;82.71
63019;BME280;49105;46.046;10.760;2024-02-26T06:59:03;94687.16;;;3.63;82.81
63019;BME280;49105;46.046;10.760;2024-02-26T07:01:28;94678.81;;;3.66;82.67
63019;BME280;49105;46.046;10.760;2024-02-26T07:03:55;94685.34;;;3.69;83.12
63019;BME280;49105;46.046;10.760;2024-02-26T07:06:21;94679.88;;;3.70;82.83
63019;BME280;49105;46.046;10.760;2024-02-26T07:08:48;94692.44;;;3.73;83.00
63019;BME280;49105;46.046;10.760;2024-02-26T07:11:14;94698.22;;;3.70;82.92
63019;BME280;49105;46.046;10.760;2024-02-26T07:13:40;94699.00;;;3.76;82.94
63019;BME280;49105;46.046;10.760;2024-02-26T07:16:09;94707.16;;;3.80;82.96
63019;BME280;49105;46.046;10.760;2024-02-26T07:18:34;94699.31;;;3.80;82.91
63019;BME280;49105;46.046;10.760;2024-02-26T07:21:03;94693.81;;;3.81;82.68
63019;BME280;49105;46.046;10.760;2024-02-26T07:23:30;94700.91;;;3.86;82.86
63019;BME280;49105;46.046;10.760;2024-02-26T07:25:56;94698.06;;;3.87;82.90
63019;BME280;49105;46.046;10.760;2024-02-26T07:28:23;94685.97;;;3.86;82.77
63019;BME280;49105;46.046;10.760;2024-02-26T07:30:49;94698.53;;;3.84;82.99
63019;BME280;49105;46.046;10.760;2024-02-26T07:33:15;94692.81;;;3.87;83.11
63019;BME280;49105;46.046;10.760;2024-02-26T07:35:41;94694.66;;;3.92;83.03
63019;BME280;49105;46.046;10.760;2024-02-26T07:38:07;94695.97;;;3.94;82.88
63019;BME280;49105;46.046;10.760;2024-02-26T07:40:32;94699.63;;;3.93;82.83
63019;BME280;49105;46.046;10.760;2024-02-26T07:42:58;94702.25;;;3.93;83.03
63019;BME280;49105;46.046;10.760;2024-02-26T07:45:24;94704.59;;;3.95;83.07
63019;BME280;49105;46.046;10.760;2024-02-26T07:47:49;94700.72;;;3.97;83.17
63019;BME280;49105;46.046;10.760;2024-02-26T07:50:17;94697.31;;;3.97;82.58
63019;BME280;49105;46.046;10.760;2024-02-26T07:52:42;94692.56;;;3.94;83.19
63019;BME280;49105;46.046;10.760;2024-02-26T07:55:09;94701.25;;;4.00;83.41
63019;BME280;49105;46.046;10.760;2024-02-26T07:57:35;94699.66;;;3.98;83.27
63019;BME280;49105;46.046;10.760;2024-02-26T08:00:02;94692.34;;;4.01;83.19
63019;BME280;49105;46.046;10.760;2024-02-26T08:02:28;94698.91;;;4.03;83.52
63019;BME280;49105;46.046;10.760;2024-02-26T08:04:54;94703.41;;;4.08;83.52
63019;BME280;49105;46.046;10.760;2024-02-26T08:07:20;94703.94;;;4.15;83.52
63019;BME280;49105;46.046;10.760;2024-02-26T08:09:47;94698.75;;;4.20;83.63
63019;BME280;49105;46.046;10.760;2024-02-26T08:12:13;94707.13;;;4.27;83.37
63019;BME280;49105;46.046;10.760;2024-02-26T08:14:39;94699.84;;;4.34;83.22
63019;BME280;49105;46.046;10.760;2024-02-26T08:17:05;94697.75;;;4.36;83.17
63019;BME280;49105;46.046;10.760;2024-02-26T08:19:31;94705.09;;;4.39;83.27
63019;BME280;49105;46.046;10.760;2024-02-26T08:21:57;94694.88;;;4.38;83.04
63019;BME280;49105;46.046;10.760;2024-02-26T08:24:23;94699.84;;;4.39;83.12
63019;BME280;49105;46.046;10.760;2024-02-26T08:26:49;94697.50;;;4.43;82.90
63019;BME280;49105;46.046;10.760;2024-02-26T08:29:14;94703.28;;;4.45;82.98
63019;BME280;49105;46.046;10.760;2024-02-26T08:31:40;94708.53;;;4.45;82.83
63019;BME280;49105;46.046;10.760;2024-02-26T08:34:06;94701.97;;;4.47;82.72
63019;BME280;49105;46.046;10.760;2024-02-26T08:36:33;94709.34;;;4.51;83.15
63019;BME280;49105;46.046;10.760;2024-02-26T08:38:59;94702.53;;;4.60;83.26
63019;BME280;49105;46.046;10.760;2024-02-26T08:41:24;94694.69;;;4.65;82.73
63019;BME280;49105;46.046;10.760;2024-02-26T08:43:51;94688.44;;;4.71;82.49
63019;BME280;49105;46.046;10.760;2024-02-26T08:46:17;94703.88;;;4.72;82.75
63019;BME280;49105;46.046;10.760;2024-02-26T08:48:43;94705.50;;;4.79;82.48
63019;BME280;49105;46.046;10.760;2024-02-26T08:51:09;94699.47;;;4.88;82.62
63019;BME280;49105;46.046;10.760;2024-02-26T08:53:35;94696.63;;;4.95;82.49
63019;BME280;49105;46.046;10.760;2024-02-26T08:56:01;94688.25;;;5.03;82.30
63019;BME280;49105;46.046;10.760;2024-02-26T08:58:27;94694.03;;;5.10;82.04
63019;BME280;49105;46.046;10.760;2024-02-26T09:00:53;94700.56;;;5.13;81.64
63019;BME280;49105;46.046;10.760;2024-02-26T09:03:19;94696.66;;;5.15;81.83
63019;BME280;49105;46.046;10.760;2024-02-26T09:05:45;94688.50;;;5.22;81.67
63019;BME280;49105;46.046;10.760;2024-02-26T09:08:11;94691.94;;;5.22;81.33
63019;BME280;49105;46.046;10.760;2024-02-26T09:10:40;94697.44;;;5.26;81.54
63019;BME280;49105;46.046;10.760;2024-02-26T09:13:06;94690.59;;;5.30;81.19
63019;BME280;49105;46.046;10.760;2024-02-26T09:15:32;94678.53;;;5.34;81.02
63019;BME280;49105;46.046;10.760;2024-02-26T09:17:58;94682.47;;;5.42;80.89
63019;BME280;49105;46.046;10.760;2024-02-26T09:20:24;94679.59;;;5.43;80.71
63019;BME280;49105;46.046;10.760;2024-02-26T09:22:49;94685.63;;;5.39;79.83
63019;BME280;49105;46.046;10.760;2024-02-26T09:25:16;94683.25;;;5.42;79.76
63019;BME280;49105;46.046;10.760;2024-02-26T09:27:43;94681.19;;;5.44;80.07
63019;BME280;49105;46.046;10.760;2024-02-26T09:30:10;94693.22;;;5.51;80.24
63019;BME280;49105;46.046;10.760;2024-02-26T09:32:37;94689.81;;;5.55;79.90
63019;BME280;49105;46.046;10.760;2024-02-26T09:35:02;94691.13;;;5.63;79.80
63019;BME280;49105;46.046;10.760;2024-02-26T09:37:28;94670.66;;;5.70;79.47
63019;BME280;49105;46.046;10.760;2024-02-26T09:39:55;94660.66;;;5.77;79.58
63019;BME280;49105;46.046;10.760;2024-02-26T09:42:28;94658.81;;;5.78;79.04
63019;BME280;49105;46.046;10.760;2024-02-26T09:45:00;94645.44;;;5.74;78.63
63019;BME280;49105;46.046;10.760;2024-02-26T09:47:31;94651.19;;;5.81;78.72
63019;BME280;49105;46.046;10.760;2024-02-26T09:49:59;94655.91;;;5.89;78.66
63019;BME280;49105;46.046;10.760;2024-02-26T09:52:25;94659.06;;;5.86;78.18
63019;BME280;49105;46.046;10.760;2024-02-26T09:54:51;94660.13;;;5.85;78.04
63019;BME280;49105;46.046;10.760;2024-02-26T09:57:25;94664.84;;;5.78;77.76
63019;BME280;49105;46.046;10.760;2024-02-26T09:59:53;94668.56;;;5.72;77.43
63019;BME280;49105;46.046;10.760;2024-02-26T10:02:20;94660.41;;;5.73;77.59
63019;BME280;49105;46.046;10.760;2024-02-26T10:04:47;94663.31;;;5.72;77.58
63019;BME280;49105;46.046;10.760;2024-02-26T10:07:15;94666.19;;;5.65;77.51
63019;BME280;49105;46.046;10.760;2024-02-26T10:09:41;94662.00;;;5.54;77.76
63019;BME280;49105;46.046;10.760;2024-02-26T10:12:10;94663.56;;;5.50;77.99
63019;BME280;49105;46.046;10.760;2024-02-26T10:14:56;94663.81;;;5.59;78.05
63019;BME280;49105;46.046;10.760;2024-02-26T10:17:23;94659.88;;;5.66;78.10
63019;BME280;49105;46.046;10.760;2024-02-26T10:19:49;94657.00;;;5.68;78.27
63019;BME280;49105;46.046;10.760;2024-02-26T10:22:17;94656.47;;;5.71;77.96
63019;BME280;49105;46.046;10.760;2024-02-26T10:24:43;94667.50;;;5.73;77.85
63019;BME280;49105;46.046;10.760;2024-02-26T10:27:16;94661.22;;;5.69;77.62
63019;BME280;49105;46.046;10.760;2024-02-26T10:29:42;94658.59;;;5.64;77.51
63019;BME280;49105;46.046;10.760;2024-02-26T10:32:10;94670.13;;;5.63;77.71
63019;BME280;49105;46.046;10.760;2024-02-26T10:34:37;94665.44;;;5.60;77.45
63019;BME280;49105;46.046;10.760;2024-02-26T10:37:20;94664.63;;;5.59;77.55
63019;BME280;49105;46.046;10.760;2024-02-26T10:39:47;94662.00;;;5.59;77.24
63019;BME280;49105;46.046;10.760;2024-02-26T10:42:14;94659.91;;;5.61;77.46
63019;BME280;49105;46.046;10.760;2024-02-26T10:44:40;94667.00;;;5.61;76.76
63019;BME280;49105;46.046;10.760;2024-02-26T10:47:08;94661.75;;;5.61;77.08
63019;BME280;49105;46.046;10.760;2024-02-26T10:49:35;94667.50;;;5.68;77.19
63019;BME280;49105;46.046;10.760;2024-02-26T10:52:01;94657.00;;;5.73;76.83
63019;BME280;49105;46.046;10.760;2024-02-26T10:54:29;94653.03;;;5.76;76.81
63019;BME280;49105;46.046;10.760;2024-02-26T10:56:56;94658.81;;;5.78;77.04
63019;BME280;49105;46.046;10.760;2024-02-26T10:59:23;94672.72;;;5.78;76.74
63019;BME280;49105;46.046;10.760;2024-02-26T11:01:48;94671.94;;;5.78;76.79
63019;BME280;49105;46.046;10.760;2024-02-26T11:04:16;94672.75;;;5.73;77.42
63019;BME280;49105;46.046;10.760;2024-02-26T11:06:43;94666.19;;;5.65;77.25
63019;BME280;49105;46.046;10.760;2024-02-26T11:09:12;94672.75;;;5.68;77.20
63019;BME280;49105;46.046;10.760;2024-02-26T11:11:39;94672.22;;;5.71;77.29
63019;BME280;49105;46.046;10.760;2024-02-26T11:14:06;94665.38;;;5.75;77.55
63019;BME280;49105;46.046;10.760;2024-02-26T11:16:34;94664.34;;;5.81;77.76
63019;BME280;49105;46.046;10.760;2024-02-26T11:19:02;94665.63;;;5.84;77.83
63019;BME280;49105;46.046;10.760;2024-02-26T11:21:28;94651.69;;;5.88;77.86
63019;BME280;49105;46.046;10.760;2024-02-26T11:24:06;94658.78;;;5.88;77.72
63019;BME280;49105;46.046;10.760;2024-02-26T11:26:35;94659.56;;;5.88;77.49
63019;BME280;49105;46.046;10.760;2024-02-26T11:29:04;94657.22;;;5.92;77.76
63019;BME280;49105;46.046;10.760;2024-02-26T11:31:33;94654.84;;;6.01;77.51
63019;BME280;49105;46.046;10.760;2024-02-26T11:33:59;94650.09;;;6.08;77.57
63019;BME280;49105;46.046;10.760;2024-02-26T11:36:25;94647.69;;;6.16;77.31
63019;BME280;49105;46.046;10.760;2024-02-26T11:38:51;94652.16;;;6.26;77.27
63019;BME280;49105;46.046;10.760;2024-02-26T11:41:18;94648.47;;;6.27;77.04
63019;BME280;49105;46.046;10.760;2024-02-26T11:43:52;94648.47;;;6.27;76.86
63019;BME280;49105;46.046;10.760;2024-02-26T11:46:40;94652.13;;;6.31;76.98
63019;BME280;49105;46.046;10.760;2024-02-26T11:49:29;94657.34;;;6.36;76.63
63019;BME280;49105;46.046;10.760;2024-02-26T11:51:57;94651.31;;;6.36;76.84
63019;BME280;49105;46.046;10.760;2024-02-26T11:54:45;94645.00;;;6.37;77.14
63019;BME280;49105;46.046;10.760;2024-02-26T11:57:44;94648.16;;;6.39;77.07
63019;BME280;49105;46.046;10.760;2024-02-26T12:00:13;94648.16;;;6.39;77.23
63019;BME280;49105;46.046;10.760;2024-02-26T12:05:22;94640.25;;;6.44;77.34
63019;BME280;49105;46.046;10.760;2024-02-26T12:08:06;94639.44;;;6.49;77.26
63019;BME280;49105;46.046;10.760;2024-02-26T12:10:39;94644.16;;;6.52;77.29
63019;BME280;49105;46.046;10.760;2024-02-26T12:13:12;94643.13;;;6.47;76.92
63019;BME280;49105;46.046;10.760;2024-02-26T12:15:42;94646.81;;;6.41;77.24
63019;BME280;49105;46.046;10.760;2024-02-26T12:18:09;94647.88;;;6.40;77.69
63019;BME280;49105;46.046;10.760;2024-02-26T12:20:38;94641.31;;;6.43;77.75
63019;BME280;49105;46.046;10.760;2024-02-26T12:23:05;94639.44;;;6.49;78.04
63019;BME280;49105;46.046;10.760;2024-02-26T12:25:31;94640.50;;;6.47;78.04
63019;BME280;49105;46.046;10.760;2024-02-26T12:27:59;94643.91;;;6.48;77.97
63019;BME280;49105;46.046;10.760;2024-02-26T12:30:25;94642.59;;;6.45;77.81
63019;BME280;49105;46.046;10.760;2024-02-26T12:32:52;94639.50;;;6.38;77.54
63019;BME280;49105;46.046;10.760;2024-02-26T12:35:22;94643.72;;;6.34;77.85
63019;BME280;49105;46.046;10.760;2024-02-26T12:37:48;94647.38;;;6.33;78.43
63019;BME280;49105;46.046;10.760;2024-02-26T12:40:14;94636.88;;;6.28;78.05
63019;BME280;49105;46.046;10.760;2024-02-26T12:42:39;94640.59;;;6.22;78.08
63019;BME280;49105;46.046;10.760;2024-02-26T12:45:12;94638.47;;;6.24;78.07
63019;BME280;49105;46.046;10.760;2024-02-26T12:47:44;94634.50;;;6.32;77.92
63019;BME280;49105;46.046;10.760;2024-02-26T12:50:11;94636.84;;;6.33;77.61
63019;BME280;49105;46.046;10.760;2024-02-26T12:52:45;94635.28;;;6.32;77.44
63019;BME280;49105;46.046;10.760;2024-02-26T12:55:16;94644.78;;;6.28;77.46
63019;BME280;49105;46.046;10.760;2024-02-26T12:57:43;94640.03;;;6.25;77.33
63019;BME280;49105;46.046;10.760;2024-02-26T13:00:16;94646.63;;;6.28;77.79
63019;BME280;49105;46.046;10.760;2024-02-26T13:02:44;94645.03;;;6.32;78.13